Time;durP1;ratioP1;P1;durP2;ratioP2;P2;SDS_P1;SDS_P2;PMS_P1;PMS_P2;Temp;Humidity;BMP_temperature;BMP_pressure;BME280_temperature;BME280_humidity;BME280_pressure;Samples;Min_cycle;Max_cycle;Signal;HPM_P1;HPM_P2
2021/12/22 00:00:40;;;;;;;42.15;20.58;;;;;;;;;;5082784;28;20061;-78
2021/12/22 00:03:08;;;;;;;44.38;21.25;;;;;;;;;;5066803;28;20064;-78
2021/12/22 00:05:43;;;;;;;42.70;20.77;;;;;;;;;;5075941;28;20487;-78
2021/12/22 00:08:12;;;;;;;46.58;20.67;;;;;;;;;;5070849;28;20532;-78
2021/12/22 00:10:42;;;;;;;42.95;20.58;;;;;;;;;;5072887;28;20084;-78
2021/12/22 00:13:09;;;;;;;40.03;20.15;;;;;;;;;;5081276;28;20131;-78
2021/12/22 00:15:35;;;;;;;43.20;20.35;;;;;;;;;;5068112;28;20106;-78
2021/12/22 00:18:02;;;;;;;39.42;18.48;;;;;;;;;;5069395;28;20083;-78
2021/12/22 00:20:28;;;;;;;44.15;20.10;;;;;;;;;;5072532;28;20111;-78
2021/12/22 00:22:58;;;;;;;39.45;18.73;;;;;;;;;;5076451;28;20059;-78
2021/12/22 00:25:26;;;;;;;43.65;20.40;;;;;;;;;;5074198;28;20569;-78
2021/12/22 00:27:53;;;;;;;43.22;19.27;;;;;;;;;;5076419;28;20566;-78
2021/12/22 00:30:19;;;;;;;41.75;19.27;;;;;;;;;;5071016;28;20049;-78
2021/12/22 00:32:52;;;;;;;45.63;21.73;;;;;;;;;;5084293;28;20534;-78
2021/12/22 00:35:20;;;;;;;43.47;20.02;;;;;;;;;;5085012;28;20106;-78
2021/12/22 00:37:46;;;;;;;43.50;19.13;;;;;;;;;;5073830;28;20080;-78
2021/12/22 00:40:13;;;;;;;43.20;19.52;;;;;;;;;;5083603;28;20569;-78
2021/12/22 00:42:39;;;;;;;39.33;19.88;;;;;;;;;;5088006;28;20049;-78
2021/12/22 00:45:06;;;;;;;47.28;20.38;;;;;;;;;;5088664;28;20052;-78
2021/12/22 00:47:33;;;;;;;42.30;21.00;;;;;;;;;;5087316;28;20527;-78
2021/12/22 00:50:00;;;;;;;41.95;20.55;;;;;;;;;;5068469;28;20080;-78
2021/12/22 00:52:27;;;;;;;43.25;19.98;;;;;;;;;;5073146;28;20559;-77
2021/12/22 00:54:53;;;;;;;41.63;19.55;;;;;;;;;;5072894;28;20072;-77
2021/12/22 00:57:20;;;;;;;43.00;19.90;;;;;;;;;;5088999;28;20063;-77
2021/12/22 00:59:47;;;;;;;42.10;18.95;;;;;;;;;;5073469;28;20150;-77
2021/12/22 01:02:15;;;;;;;37.55;18.40;;;;;;;;;;5069362;28;20053;-78
2021/12/22 01:04:42;;;;;;;44.60;19.02;;;;;;;;;;5076416;28;20063;-78
2021/12/22 01:07:08;;;;;;;44.53;20.05;;;;;;;;;;5080784;28;20060;-77
2021/12/22 01:09:35;;;;;;;40.30;17.67;;;;;;;;;;5079233;28;20072;-78
2021/12/22 01:12:02;;;;;;;42.80;18.73;;;;;;;;;;5080772;28;20561;-78
2021/12/22 01:14:28;;;;;;;39.58;19.73;;;;;;;;;;5070952;28;20553;-78
2021/12/22 01:17:00;;;;;;;38.92;18.70;;;;;;;;;;5082847;28;20542;-77
2021/12/22 01:19:37;;;;;;;47.88;18.50;;;;;;;;;;5080510;28;20431;-77
2021/12/22 01:22:20;;;;;;;40.15;19.55;;;;;;;;;;5072642;28;20036;-77
2021/12/22 01:24:49;;;;;;;38.65;18.83;;;;;;;;;;5086396;28;20057;-77
2021/12/22 01:27:21;;;;;;;36.10;17.10;;;;;;;;;;5067899;28;20049;-77
2021/12/22 01:29:47;;;;;;;39.30;17.85;;;;;;;;;;5077693;28;20092;-77
2021/12/22 01:32:15;;;;;;;41.85;18.58;;;;;;;;;;5079808;28;20644;-77
2021/12/22 01:34:42;;;;;;;37.75;18.42;;;;;;;;;;5074826;28;20546;-77
2021/12/22 01:37:08;;;;;;;40.00;18.75;;;;;;;;;;5077340;28;20625;-77
2021/12/22 01:39:34;;;;;;;38.75;18.83;;;;;;;;;;5068345;28;20072;-77
2021/12/22 01:42:01;;;;;;;39.88;18.50;;;;;;;;;;5069566;28;20033;-77
2021/12/22 01:44:32;;;;;;;43.85;18.98;;;;;;;;;;5066590;28;20510;-77
2021/12/22 01:49:50;;;;;;;37.95;18.65;;;;;;;;;;5068595;28;20049;-77
2021/12/22 01:52:18;;;;;;;43.22;20.00;;;;;;;;;;5080739;28;20080;-77
2021/12/22 01:54:50;;;;;;;41.55;19.80;;;;;;;;;;5067466;28;20088;-77
2021/12/22 01:57:17;;;;;;;40.63;19.60;;;;;;;;;;5069977;28;20041;-77
2021/12/22 01:59:44;;;;;;;36.92;19.13;;;;;;;;;;5068032;28;20052;-77
2021/12/22 02:02:12;;;;;;;35.08;17.77;;;;;;;;;;5068166;28;20049;-77
2021/12/22 02:04:40;;;;;;;33.05;16.95;;;;;;;;;;5088361;28;20114;-77
2021/12/22 02:07:08;;;;;;;42.53;18.58;;;;;;;;;;5078752;28;20055;-77
2021/12/22 02:12:06;;;;;;;40.35;18.67;;;;;;;;;;5089580;27;20106;-77
2021/12/22 02:14:32;;;;;;;41.97;19.48;;;;;;;;;;5085148;28;20052;-77
2021/12/22 02:16:59;;;;;;;38.17;18.23;;;;;;;;;;5077102;28;20053;-77
2021/12/22 02:19:25;;;;;;;40.85;18.52;;;;;;;;;;5082710;28;20492;-76
2021/12/22 02:21:56;;;;;;;33.42;18.13;;;;;;;;;;5077034;28;20075;-77
2021/12/22 02:24:22;;;;;;;;;;;;;;;;;;5090450;28;20048;-77
2021/12/22 02:27:00;;;;;;;36.80;16.08;;;;;;;;;;5067649;28;46327;-77
2021/12/22 02:29:35;;;;;;;39.67;18.13;;;;;;;;;;5082917;28;20128;-77
2021/12/22 02:32:15;;;;;;;37.92;17.67;;;;;;;;;;5077108;28;20085;-77
2021/12/22 02:34:44;;;;;;;44.10;18.10;;;;;;;;;;5081208;28;20142;-77
2021/12/22 02:37:14;;;;;;;38.90;18.27;;;;;;;;;;5070009;28;20103;-77
2021/12/22 02:39:45;;;;;;;41.60;18.07;;;;;;;;;;5071663;28;20660;-77
2021/12/22 02:42:12;;;;;;;39.95;18.25;;;;;;;;;;5079461;28;20264;-77
2021/12/22 02:44:39;;;;;;;38.03;18.40;;;;;;;;;;5079902;28;20053;-77
2021/12/22 02:47:16;;;;;;;40.30;18.27;;;;;;;;;;5073869;28;20597;-77
2021/12/22 02:49:42;;;;;;;39.13;17.02;;;;;;;;;;5073754;28;20061;-76
2021/12/22 02:52:08;;;;;;;35.40;17.38;;;;;;;;;;5072016;28;20141;-77
2021/12/22 02:54:41;;;;;;;33.92;17.15;;;;;;;;;;5066809;28;20595;-77
2021/12/22 02:57:21;;;;;;;38.63;18.33;;;;;;;;;;5064665;28;20680;-77
2021/12/22 03:00:10;;;;;;;31.43;15.70;;;;;;;;;;5065213;28;20056;-77
2021/12/22 03:05:33;;;;;;;35.83;16.03;;;;;;;;;;5057163;28;20088;-77
2021/12/22 03:08:00;;;;;;;32.38;15.02;;;;;;;;;;5082349;28;20056;-77
2021/12/22 03:10:26;;;;;;;28.88;15.27;;;;;;;;;;5086212;28;20049;-77
2021/12/22 03:12:55;;;;;;;29.63;15.10;;;;;;;;;;5071332;28;20056;-77
2021/12/22 03:15:22;;;;;;;31.23;15.73;;;;;;;;;;5083783;28;20190;-77
2021/12/22 03:17:49;;;;;;;30.65;14.88;;;;;;;;;;5075338;28;20053;-76
2021/12/22 03:20:16;;;;;;;30.30;14.48;;;;;;;;;;5064392;28;20102;-76
2021/12/22 03:22:44;;;;;;;28.25;14.32;;;;;;;;;;5073614;28;20592;-77
2021/12/22 03:25:15;;;;;;;27.90;14.30;;;;;;;;;;5082668;28;20489;-76
2021/12/22 03:27:47;;;;;;;34.37;15.73;;;;;;;;;;5082999;28;20084;-77
2021/12/22 03:30:14;;;;;;;31.58;14.82;;;;;;;;;;5067799;28;20053;-77
2021/12/22 03:32:41;;;;;;;32.92;14.20;;;;;;;;;;5072022;28;20060;-77
2021/12/22 03:35:08;;;;;;;33.72;15.43;;;;;;;;;;5067821;28;20053;-77
2021/12/22 03:37:34;;;;;;;32.05;15.98;;;;;;;;;;5071494;28;20052;-77
2021/12/22 03:40:01;;;;;;;31.60;15.35;;;;;;;;;;5076294;28;20142;-77
2021/12/22 03:42:27;;;;;;;33.20;15.77;;;;;;;;;;5079054;28;20133;-76
2021/12/22 03:44:53;;;;;;;33.28;15.55;;;;;;;;;;5102684;28;20145;-77
2021/12/22 03:47:21;;;;;;;31.90;15.68;;;;;;;;;;5081259;28;20580;-77
2021/12/22 03:49:48;;;;;;;30.02;14.52;;;;;;;;;;5084267;28;20060;-77
2021/12/22 03:52:14;;;;;;;29.05;15.32;;;;;;;;;;5072163;28;20057;-76
2021/12/22 03:54:41;;;;;;;29.27;14.90;;;;;;;;;;5068751;28;20099;-76
2021/12/22 03:57:07;;;;;;;28.48;13.48;;;;;;;;;;5083966;28;20053;-76
2021/12/22 03:59:33;;;;;;;29.63;14.88;;;;;;;;;;5068653;28;20057;-76
2021/12/22 04:02:00;;;;;;;27.10;13.60;;;;;;;;;;5077519;28;20060;-77
2021/12/22 04:04:26;;;;;;;28.05;13.20;;;;;;;;;;5087800;28;20141;-77
2021/12/22 04:06:53;;;;;;;29.20;13.57;;;;;;;;;;5085315;28;20645;-77
2021/12/22 04:09:26;;;;;;;32.63;13.13;;;;;;;;;;5087085;28;20081;-77
2021/12/22 04:11:53;;;;;;;29.27;13.03;;;;;;;;;;5081833;28;20056;-76
2021/12/22 04:14:19;;;;;;;28.93;13.30;;;;;;;;;;5076785;28;20189;-77
2021/12/22 04:16:45;;;;;;;31.07;14.37;;;;;;;;;;5079544;28;22092;-76
2021/12/22 04:19:12;;;;;;;27.27;14.03;;;;;;;;;;5072473;28;20081;-76
2021/12/22 04:21:38;;;;;;;27.47;13.30;;;;;;;;;;5068501;28;20151;-76
2021/12/22 04:24:06;;;;;;;30.73;14.15;;;;;;;;;;5075261;28;20905;-76
2021/12/22 04:26:34;;;;;;;31.17;13.50;;;;;;;;;;5067915;28;20537;-76
2021/12/22 04:29:00;;;;;;;29.87;13.57;;;;;;;;;;5067095;28;20088;-77
2021/12/22 04:31:26;;;;;;;31.95;13.88;;;;;;;;;;5068761;28;20119;-77
2021/12/22 04:33:53;;;;;;;27.23;14.07;;;;;;;;;;5072689;28;20223;-77
2021/12/22 04:36:19;;;;;;;24.53;13.43;;;;;;;;;;5070366;28;20524;-77
2021/12/22 04:38:46;;;;;;;30.00;13.53;;;;;;;;;;5086739;28;20104;-77
2021/12/22 04:41:12;;;;;;;29.35;13.02;;;;;;;;;;5084828;28;20048;-77
2021/12/22 04:43:38;;;;;;;35.63;14.03;;;;;;;;;;5069709;28;20104;-77
2021/12/22 04:46:05;;;;;;;26.38;12.43;;;;;;;;;;5070852;28;20114;-76
2021/12/22 04:48:34;;;;;;;28.85;12.70;;;;;;;;;;5069570;28;20679;-77
2021/12/22 04:51:00;;;;;;;30.30;12.97;;;;;;;;;;5077741;28;20206;-77
2021/12/22 04:53:36;;;;;;;32.23;14.17;;;;;;;;;;5070844;28;20142;-77
2021/12/22 04:56:02;;;;;;;29.73;13.30;;;;;;;;;;5081062;28;20870;-77
2021/12/22 04:58:29;;;;;;;31.67;13.73;;;;;;;;;;5074273;28;20119;-76
2021/12/22 05:00:56;;;;;;;27.00;13.20;;;;;;;;;;5074030;28;20586;-77
2021/12/22 05:03:23;;;;;;;30.97;13.63;;;;;;;;;;5071021;28;20604;-76
2021/12/22 05:05:49;;;;;;;28.43;13.70;;;;;;;;;;5069611;28;20053;-77
2021/12/22 05:08:17;;;;;;;32.97;14.40;;;;;;;;;;5079672;28;20139;-77
2021/12/22 05:10:44;;;;;;;24.80;11.97;;;;;;;;;;5079173;28;20518;-77
2021/12/22 05:13:10;;;;;;;30.52;13.07;;;;;;;;;;5068994;28;20174;-76
2021/12/22 05:15:38;;;;;;;28.37;12.93;;;;;;;;;;5068145;28;20111;-76
2021/12/22 05:18:21;;;;;;;28.35;12.63;;;;;;;;;;5078048;28;20060;-76
2021/12/22 05:20:48;;;;;;;32.22;13.00;;;;;;;;;;5074831;28;20203;-76
2021/12/22 05:23:15;;;;;;;30.45;13.50;;;;;;;;;;5077874;28;20187;-76
2021/12/22 05:25:42;;;;;;;28.00;13.48;;;;;;;;;;5085169;28;20056;-76
2021/12/22 05:28:08;;;;;;;32.53;13.48;;;;;;;;;;5070518;28;20143;-77
2021/12/22 05:30:34;;;;;;;33.50;14.02;;;;;;;;;;5067666;28;20045;-76
2021/12/22 05:33:01;;;;;;;28.52;12.70;;;;;;;;;;5073567;28;20527;-77
2021/12/22 05:35:27;;;;;;;35.10;14.68;;;;;;;;;;5068056;28;20146;-77
2021/12/22 05:37:53;;;;;;;30.48;13.80;;;;;;;;;;5077646;28;20539;-77
2021/12/22 05:40:20;;;;;;;30.37;13.33;;;;;;;;;;5076778;28;20053;-76
2021/12/22 05:42:47;;;;;;;28.57;13.10;;;;;;;;;;5079097;28;20106;-77
2021/12/22 05:45:13;;;;;;;30.90;12.13;;;;;;;;;;5086206;28;20162;-76
2021/12/22 05:47:39;;;;;;;29.30;13.60;;;;;;;;;;5074747;28;20106;-77
2021/12/22 05:50:07;;;;;;;33.47;13.90;;;;;;;;;;5074838;28;20060;-77
2021/12/22 05:52:34;;;;;;;33.30;15.18;;;;;;;;;;5084657;28;20084;-77
2021/12/22 05:55:00;;;;;;;28.67;14.03;;;;;;;;;;5067451;28;20530;-76
2021/12/22 05:57:27;;;;;;;27.60;13.52;;;;;;;;;;5068572;28;20045;-78
2021/12/22 05:59:53;;;;;;;38.30;14.32;;;;;;;;;;5067110;28;20111;-78
2021/12/22 06:02:20;;;;;;;32.33;13.68;;;;;;;;;;5072594;28;20049;-78
2021/12/22 06:04:46;;;;;;;28.38;14.23;;;;;;;;;;5067327;28;20195;-78
2021/12/22 06:07:13;;;;;;;33.03;13.50;;;;;;;;;;5067300;28;20116;-78
2021/12/22 06:09:39;;;;;;;28.30;13.00;;;;;;;;;;5078112;28;20048;-78
2021/12/22 06:12:05;;;;;;;33.67;14.70;;;;;;;;;;5072234;28;20049;-78
2021/12/22 06:14:32;;;;;;;33.08;14.48;;;;;;;;;;5082870;28;20565;-78
2021/12/22 06:16:58;;;;;;;35.95;14.07;;;;;;;;;;5078482;28;20519;-78
2021/12/22 06:19:25;;;;;;;34.57;14.70;;;;;;;;;;5075841;28;20057;-78
2021/12/22 06:21:51;;;;;;;31.67;12.95;;;;;;;;;;5082525;28;20057;-78
2021/12/22 06:24:17;;;;;;;38.03;15.33;;;;;;;;;;5074622;28;20184;-78
2021/12/22 06:26:44;;;;;;;47.00;17.40;;;;;;;;;;5065831;28;20061;-78
2021/12/22 06:29:10;;;;;;;46.23;18.67;;;;;;;;;;5069920;28;20127;-78
2021/12/22 06:31:37;;;;;;;42.15;18.60;;;;;;;;;;5066975;28;20072;-78
2021/12/22 06:34:03;;;;;;;36.58;16.20;;;;;;;;;;5067029;28;20104;-78
2021/12/22 06:36:31;;;;;;;39.00;16.40;;;;;;;;;;5066374;28;20646;-78
2021/12/22 06:38:57;;;;;;;29.77;13.68;;;;;;;;;;5069349;28;20103;-78
2021/12/22 06:41:24;;;;;;;34.75;14.68;;;;;;;;;;5084163;28;20109;-78
2021/12/22 06:43:50;;;;;;;33.67;14.73;;;;;;;;;;5086648;28;20114;-78
2021/12/22 06:46:16;;;;;;;33.23;14.37;;;;;;;;;;5072142;28;20077;-78
2021/12/22 06:48:43;;;;;;;32.77;15.13;;;;;;;;;;5085470;28;20118;-78
2021/12/22 06:51:09;;;;;;;31.80;13.47;;;;;;;;;;5071662;28;20215;-78
2021/12/22 06:53:36;;;;;;;36.90;15.90;;;;;;;;;;5071843;28;20088;-78
2021/12/22 06:56:03;;;;;;;39.10;14.17;;;;;;;;;;5070325;28;20053;-78
2021/12/22 06:58:29;;;;;;;34.87;14.43;;;;;;;;;;5081939;28;20504;-78
2021/12/22 07:00:56;;;;;;;31.90;14.50;;;;;;;;;;5070438;28;20122;-78
2021/12/22 07:03:22;;;;;;;35.70;14.10;;;;;;;;;;5078534;28;20056;-78
2021/12/22 07:05:49;;;;;;;31.90;14.07;;;;;;;;;;5086783;28;20111;-78
2021/12/22 07:08:15;;;;;;;33.10;13.77;;;;;;;;;;5066925;28;20554;-78
2021/12/22 07:10:42;;;;;;;33.63;14.32;;;;;;;;;;5069839;28;20541;-78
2021/12/22 07:13:09;;;;;;;34.07;14.27;;;;;;;;;;5069424;28;20790;-78
2021/12/22 07:15:35;;;;;;;30.73;14.10;;;;;;;;;;5081796;28;20216;-78
2021/12/22 07:18:02;;;;;;;33.17;13.80;;;;;;;;;;5074879;28;20110;-77
2021/12/22 07:20:29;;;;;;;30.93;12.70;;;;;;;;;;5085558;28;20052;-77
2021/12/22 07:22:55;;;;;;;30.43;13.63;;;;;;;;;;5071918;28;20089;-78
2021/12/22 07:25:24;;;;;;;30.20;13.27;;;;;;;;;;5075727;28;20605;-78
2021/12/22 07:27:51;;;;;;;32.10;13.60;;;;;;;;;;5084993;28;20053;-78
2021/12/22 07:30:17;;;;;;;32.67;12.43;;;;;;;;;;5065927;28;20049;-78
2021/12/22 07:32:43;;;;;;;31.13;12.48;;;;;;;;;;5074178;28;20055;-78
2021/12/22 07:35:19;;;;;;;32.05;13.98;;;;;;;;;;5073180;28;20601;-78
2021/12/22 07:38:02;;;;;;;36.67;13.10;;;;;;;;;;5069352;28;20107;-78
2021/12/22 07:40:28;;;;;;;28.80;13.00;;;;;;;;;;5073335;28;20083;-78
2021/12/22 07:42:54;;;;;;;31.70;12.83;;;;;;;;;;5079082;28;20053;-78
2021/12/22 07:45:21;;;;;;;27.30;12.60;;;;;;;;;;5081969;28;20134;-78
2021/12/22 07:47:47;;;;;;;29.13;13.67;;;;;;;;;;5078163;28;20454;-78
2021/12/22 07:50:13;;;;;;;30.80;14.10;;;;;;;;;;5084960;28;20110;-78
2021/12/22 07:52:40;;;;;;;31.97;13.53;;;;;;;;;;5076400;28;20084;-78
2021/12/22 07:55:07;;;;;;;32.83;13.97;;;;;;;;;;5066183;28;20592;-78
2021/12/22 07:57:33;;;;;;;28.80;12.97;;;;;;;;;;5063870;28;20053;-78
2021/12/22 07:59:59;;;;;;;39.17;13.47;;;;;;;;;;5072507;28;20087;-78
2021/12/22 08:02:26;;;;;;;32.93;13.03;;;;;;;;;;5077760;28;20052;-78
2021/12/22 08:04:52;;;;;;;31.90;14.80;;;;;;;;;;5083825;28;20044;-78
2021/12/22 08:07:19;;;;;;;31.52;13.13;;;;;;;;;;5084726;28;20142;-78
2021/12/22 08:09:45;;;;;;;31.30;13.47;;;;;;;;;;5066585;28;20057;-78
2021/12/22 08:12:11;;;;;;;37.20;13.90;;;;;;;;;;5070318;28;20049;-78
2021/12/22 08:14:39;;;;;;;29.73;13.63;;;;;;;;;;5078842;28;20563;-78
2021/12/22 08:17:06;;;;;;;36.50;14.17;;;;;;;;;;5075378;28;20473;-78
2021/12/22 08:19:33;;;;;;;31.07;12.93;;;;;;;;;;5079447;28;20057;-77
2021/12/22 08:21:59;;;;;;;32.70;13.47;;;;;;;;;;5074394;28;20064;-78
2021/12/22 08:24:25;;;;;;;34.33;14.03;;;;;;;;;;5082261;28;20110;-78
2021/12/22 08:26:52;;;;;;;33.20;13.47;;;;;;;;;;5075063;28;20387;-78
2021/12/22 08:29:19;;;;;;;31.00;12.87;;;;;;;;;;5068277;28;20467;-78
2021/12/22 08:31:45;;;;;;;34.03;13.43;;;;;;;;;;5072346;28;20068;-78
2021/12/22 08:34:16;;;;;;;31.10;12.68;;;;;;;;;;5074195;28;20158;-78
2021/12/22 08:39:27;;;;;;;28.98;12.90;;;;;;;;;;5075170;28;20501;-78
2021/12/22 08:41:54;;;;;;;35.45;13.80;;;;;;;;;;5068225;28;20555;-78
2021/12/22 08:44:21;;;;;;;33.30;12.32;;;;;;;;;;5074278;28;20053;-78
2021/12/22 08:46:49;;;;;;;31.35;13.10;;;;;;;;;;5075288;28;20139;-78
2021/12/22 08:49:16;;;;;;;35.28;13.77;;;;;;;;;;5076606;28;20549;-78
2021/12/22 08:51:42;;;;;;;34.03;13.73;;;;;;;;;;5070051;28;20150;-78
2021/12/22 08:54:09;;;;;;;33.08;12.75;;;;;;;;;;5074436;28;20140;-78
2021/12/22 08:56:36;;;;;;;30.23;13.02;;;;;;;;;;5085725;28;20056;-78
2021/12/22 08:59:03;;;;;;;31.45;13.07;;;;;;;;;;5079338;28;20102;-78
2021/12/22 09:01:31;;;;;;;29.10;12.85;;;;;;;;;;5071702;28;20049;-78
2021/12/22 09:03:57;;;;;;;31.67;13.00;;;;;;;;;;5067143;28;20100;-78
2021/12/22 09:06:24;;;;;;;34.38;14.13;;;;;;;;;;5078954;28;20056;-78
2021/12/22 09:08:52;;;;;;;34.83;13.90;;;;;;;;;;5069290;28;20111;-78
2021/12/22 09:11:19;;;;;;;36.25;13.55;;;;;;;;;;5076206;28;20522;-78
2021/12/22 09:13:45;;;;;;;35.90;14.80;;;;;;;;;;5077918;28;20084;-78
2021/12/22 09:16:12;;;;;;;34.45;14.23;;;;;;;;;;5068970;28;20067;-77
2021/12/22 09:18:39;;;;;;;37.67;14.25;;;;;;;;;;5075774;28;20363;-77
2021/12/22 09:21:06;;;;;;;39.13;15.25;;;;;;;;;;5087134;28;20549;-77
2021/12/22 09:23:32;;;;;;;31.42;14.88;;;;;;;;;;5088623;28;20642;-78
2021/12/22 09:25:59;;;;;;;36.45;14.82;;;;;;;;;;5070998;28;20059;-78
2021/12/22 09:28:25;;;;;;;34.47;14.50;;;;;;;;;;5071610;28;20566;-78
2021/12/22 09:30:52;;;;;;;35.40;15.15;;;;;;;;;;5082147;28;20076;-78
2021/12/22 09:33:19;;;;;;;36.45;15.13;;;;;;;;;;5080641;28;20052;-77
2021/12/22 09:35:49;;;;;;;38.80;16.42;;;;;;;;;;5075472;28;20053;-77
2021/12/22 09:38:16;;;;;;;39.13;14.77;;;;;;;;;;5073655;28;20084;-77
2021/12/22 09:40:42;;;;;;;33.83;14.52;;;;;;;;;;5071198;28;20091;-77
2021/12/22 09:43:08;;;;;;;34.38;15.25;;;;;;;;;;5077919;28;20110;-77
2021/12/22 09:45:41;;;;;;;35.33;14.00;;;;;;;;;;5071288;28;20056;-77
2021/12/22 09:50:50;;;;;;;38.13;14.63;;;;;;;;;;5077722;28;20056;-77
2021/12/22 09:53:24;;;;;;;34.70;14.50;;;;;;;;;;5096672;28;20091;-77
2021/12/22 09:55:51;;;;;;;33.67;14.55;;;;;;;;;;5093890;28;20099;-76
2021/12/22 09:58:18;;;;;;;42.90;16.48;;;;;;;;;;5070810;28;20103;-77
2021/12/22 10:00:44;;;;;;;39.88;15.70;;;;;;;;;;5067956;28;20084;-78
2021/12/22 10:03:11;;;;;;;30.75;13.35;;;;;;;;;;5076308;28;20096;-78
2021/12/22 10:05:39;;;;;;;37.33;15.50;;;;;;;;;;5082372;28;20080;-77
2021/12/22 10:08:14;;;;;;;40.33;15.80;;;;;;;;;;5071256;28;20103;-77
2021/12/22 10:10:43;;;;;;;35.47;14.75;;;;;;;;;;5074866;28;20727;-77
2021/12/22 10:13:12;;;;;;;37.00;16.27;;;;;;;;;;5070268;28;20142;-77
2021/12/22 10:15:38;;;;;;;35.28;14.70;;;;;;;;;;5087660;28;20073;-77
2021/12/22 10:18:24;;;;;;;30.17;14.57;;;;;;;;;;5071245;28;20049;-77
2021/12/22 10:20:51;;;;;;;35.30;14.85;;;;;;;;;;5076869;28;20099;-77
2021/12/22 10:23:19;;;;;;;35.95;15.52;;;;;;;;;;5077085;28;20606;-77
2021/12/22 10:26:09;;;;;;;33.38;14.23;;;;;;;;;;5070152;28;20060;-77
2021/12/22 10:28:47;;;;;;;28.58;13.48;;;;;;;;;;5064986;28;20126;-77
2021/12/22 10:31:14;;;;;;;31.55;14.20;;;;;;;;;;5069490;28;20114;-77
2021/12/22 10:33:41;;;;;;;28.83;14.40;;;;;;;;;;5089855;28;20141;-77
2021/12/22 10:36:13;;;;;;;28.92;13.80;;;;;;;;;;5094978;28;20503;-77
2021/12/22 10:38:47;;;;;;;33.05;14.15;;;;;;;;;;5066481;28;20053;-78
2021/12/22 10:41:13;;;;;;;32.67;13.70;;;;;;;;;;5068712;28;20057;-77
2021/12/22 10:43:44;;;;;;;44.60;14.50;;;;;;;;;;5069044;28;20084;-77
2021/12/22 10:46:16;;;;;;;30.80;13.27;;;;;;;;;;5078328;28;20587;-77
2021/12/22 10:51:32;;;;;;;31.15;13.45;;;;;;;;;;5074615;28;20087;-77
2021/12/22 10:54:00;;;;;;;27.77;13.48;;;;;;;;;;5068156;28;20057;-77
2021/12/22 10:56:28;;;;;;;30.45;13.70;;;;;;;;;;5076379;28;20053;-77
2021/12/22 10:59:15;;;;;;;33.80;13.52;;;;;;;;;;5078928;28;20092;-77
2021/12/22 11:01:56;;;;;;;30.02;13.43;;;;;;;;;;5073261;28;20087;-77
2021/12/22 11:04:26;;;;;;;29.48;13.20;;;;;;;;;;5087541;28;20064;-78
2021/12/22 11:06:55;;;;;;;30.33;12.83;;;;;;;;;;5080964;27;20129;-78
2021/12/22 11:09:22;;;;;;;33.63;14.20;;;;;;;;;;5073982;28;20057;-78
2021/12/22 11:11:55;;;;;;;25.02;14.02;;;;;;;;;;5078267;28;20092;-78
2021/12/22 11:14:28;;;;;;;29.73;13.48;;;;;;;;;;5083066;28;20107;-78
2021/12/22 11:17:02;;;;;;;29.08;13.10;;;;;;;;;;5074950;28;20080;-78
2021/12/22 11:19:30;;;;;;;28.83;14.05;;;;;;;;;;5072802;28;20544;-77
2021/12/22 11:24:35;;;;;;;28.60;13.88;;;;;;;;;;5071887;28;20825;-78
2021/12/22 11:27:02;;;;;;;29.00;13.68;;;;;;;;;;5080428;28;20137;-78
2021/12/22 11:29:28;;;;;;;30.65;13.70;;;;;;;;;;5080391;28;20574;-78
2021/12/22 11:31:55;;;;;;;27.02;12.30;;;;;;;;;;5071313;28;20574;-78
2021/12/22 11:34:22;;;;;;;28.52;13.18;;;;;;;;;;5068229;28;20057;-78
2021/12/22 11:36:50;;;;;;;27.77;13.00;;;;;;;;;;5073770;28;20057;-78
2021/12/22 11:39:17;;;;;;;25.13;12.63;;;;;;;;;;5069002;28;20053;-78
2021/12/22 11:41:53;;;;;;;24.55;12.98;;;;;;;;;;5076943;28;20562;-78
2021/12/22 11:44:21;;;;;;;30.98;13.90;;;;;;;;;;5073335;28;20408;-78
2021/12/22 11:46:48;;;;;;;26.65;13.40;;;;;;;;;;5079653;28;20092;-78
2021/12/22 11:49:18;;;;;;;28.63;12.10;;;;;;;;;;5066138;28;20072;-78
2021/12/22 11:51:44;;;;;;;26.80;13.57;;;;;;;;;;5077475;28;20056;-78
2021/12/22 11:54:10;;;;;;;26.80;13.45;;;;;;;;;;5082136;28;20141;-78
2021/12/22 11:56:45;;;;;;;23.52;12.52;;;;;;;;;;5073472;28;20102;-78
2021/12/22 11:59:30;;;;;;;26.65;13.27;;;;;;;;;;5070797;28;20076;-78
2021/12/22 12:02:15;;;;;;;25.10;11.93;;;;;;;;;;5070134;28;21153;-78
2021/12/22 12:04:42;;;;;;;27.95;13.00;;;;;;;;;;5069559;28;20049;-78
2021/12/22 12:07:09;;;;;;;31.05;14.50;;;;;;;;;;5080346;27;20103;-78
2021/12/22 12:09:42;;;;;;;27.08;13.05;;;;;;;;;;5072412;28;20118;-78
2021/12/22 12:12:29;;;;;;;32.38;15.55;;;;;;;;;;5070168;28;20048;-79
2021/12/22 12:15:10;;;;;;;26.58;13.20;;;;;;;;;;5075721;28;20088;-78
2021/12/22 12:23:30;;;;;;;28.02;14.55;;;;;;;;;;5070698;28;20053;-78
2021/12/22 12:25:57;;;;;;;21.92;12.65;;;;;;;;;;5068737;28;20049;-78
2021/12/22 12:28:27;;;;;;;24.75;14.07;;;;;;;;;;5078665;28;20049;-78
2021/12/22 12:30:54;;;;;;;23.85;13.02;;;;;;;;;;5088927;28;20189;-78
2021/12/22 12:33:21;;;;;;;30.70;15.65;;;;;;;;;;5076253;28;20856;-78
2021/12/22 12:35:53;;;;;;;25.02;11.50;;;;;;;;;;5075341;28;20052;-79
2021/12/22 12:38:25;;;;;;;20.90;11.55;;;;;;;;;;5096346;28;20102;-79
2021/12/22 12:40:58;;;;;;;21.50;12.00;;;;;;;;;;5070042;28;20129;-78
2021/12/22 12:43:43;;;;;;;22.00;11.30;;;;;;;;;;5081108;28;20573;-78
2021/12/22 12:46:18;;;;;;;22.00;11.30;;;;;;;;;;5069746;28;20056;-79
2021/12/22 12:48:51;;;;;;;22.50;12.77;;;;;;;;;;5082878;28;20064;-79
2021/12/22 12:51:17;;;;;;;22.90;11.65;;;;;;;;;;5082746;28;20406;-79
2021/12/22 12:53:49;;;;;;;22.88;11.68;;;;;;;;;;5089513;28;20102;-79
2021/12/22 12:56:16;;;;;;;23.15;11.85;;;;;;;;;;5074833;28;20053;-79
2021/12/22 12:58:57;;;;;;;23.52;12.48;;;;;;;;;;5068949;28;20103;-79
2021/12/22 13:01:42;;;;;;;21.85;11.63;;;;;;;;;;5085367;28;20125;-79
2021/12/22 13:04:24;;;;;;;21.13;11.65;;;;;;;;;;5075047;28;20053;-79
2021/12/22 13:06:51;;;;;;;21.50;10.93;;;;;;;;;;5076379;28;20049;-79
2021/12/22 13:09:25;;;;;;;21.92;10.48;;;;;;;;;;5073566;28;20057;-79
2021/12/22 13:12:04;;;;;;;21.92;10.98;;;;;;;;;;5075927;28;20518;-79
2021/12/22 13:17:24;;;;;;;22.33;11.10;;;;;;;;;;5075459;28;20060;-79
2021/12/22 13:19:55;;;;;;;24.92;11.32;;;;;;;;;;5086255;28;20541;-79
2021/12/22 13:22:21;;;;;;;22.45;11.30;;;;;;;;;;5088503;28;20250;-79
2021/12/22 13:24:48;;;;;;;22.48;11.88;;;;;;;;;;5073588;28;20057;-81
2021/12/22 13:27:29;;;;;;;20.20;11.07;;;;;;;;;;5069841;28;20053;-77
2021/12/22 13:30:09;;;;;;;20.75;10.52;;;;;;;;;;5072593;28;20091;-78
2021/12/22 13:32:36;;;;;;;;;;;;;;;;;;5068334;28;20057;-79
2021/12/22 13:35:03;;;;;;;22.02;10.63;;;;;;;;;;5066831;28;45922;-78
2021/12/22 13:37:30;;;;;;;22.13;12.02;;;;;;;;;;5088301;28;20056;-79
2021/12/22 13:39:57;;;;;;;23.13;10.70;;;;;;;;;;5074440;28;20071;-78
2021/12/22 13:42:23;;;;;;;20.20;11.20;;;;;;;;;;5075262;28;20983;-79
2021/12/22 13:44:49;;;;;;;32.85;11.13;;;;;;;;;;5076513;28;20052;-79
2021/12/22 13:47:16;;;;;;;21.42;10.68;;;;;;;;;;5083609;28;20107;-79
2021/12/22 13:49:42;;;;;;;22.83;11.27;;;;;;;;;;5073985;28;20144;-79
2021/12/22 13:52:09;;;;;;;22.98;11.38;;;;;;;;;;5082809;28;20080;-79
2021/12/22 13:54:35;;;;;;;18.70;10.63;;;;;;;;;;5080174;28;20533;-79
2021/12/22 13:57:06;;;;;;;20.15;11.07;;;;;;;;;;5079582;28;20056;-78
2021/12/22 13:59:34;;;;;;;20.63;11.45;;;;;;;;;;5088832;28;20588;-79
2021/12/22 14:02:01;;;;;;;24.17;11.18;;;;;;;;;;5090701;27;20767;-79
2021/12/22 14:04:29;;;;;;;22.60;11.35;;;;;;;;;;5071855;28;20086;-79
2021/12/22 14:07:05;;;;;;;25.83;11.90;;;;;;;;;;5077961;28;20049;-79
2021/12/22 14:09:31;;;;;;;23.05;11.77;;;;;;;;;;5066988;28;20049;-79
2021/12/22 14:12:09;;;;;;;28.27;13.38;;;;;;;;;;5073498;28;20092;-79
2021/12/22 14:14:42;;;;;;;29.80;14.23;;;;;;;;;;5076814;28;20136;-78
2021/12/22 14:17:09;;;;;;;26.38;14.30;;;;;;;;;;5073007;28;20053;-79
2021/12/22 14:19:57;;;;;;;29.02;15.60;;;;;;;;;;5071007;28;20166;-79
2021/12/22 14:22:27;;;;;;;31.85;15.77;;;;;;;;;;5070010;28;20049;-79
2021/12/22 14:24:59;;;;;;;34.67;15.50;;;;;;;;;;5072011;28;21638;-79
2021/12/22 14:27:35;;;;;;;31.85;15.60;;;;;;;;;;5080515;28;20072;-79
2021/12/22 14:30:04;;;;;;;32.20;14.57;;;;;;;;;;5085462;28;20083;-79
2021/12/22 14:32:36;;;;;;;28.45;14.57;;;;;;;;;;5083349;28;20301;-79
2021/12/22 14:35:08;;;;;;;31.90;13.50;;;;;;;;;;5071031;28;20049;-79
2021/12/22 14:37:35;;;;;;;30.52;14.45;;;;;;;;;;5083754;28;20048;-79
2021/12/22 14:40:11;;;;;;;28.15;13.50;;;;;;;;;;5083551;28;20080;-79
2021/12/22 14:42:37;;;;;;;21.08;11.73;;;;;;;;;;5085957;28;20110;-79
2021/12/22 14:45:18;;;;;;;24.17;12.13;;;;;;;;;;5083061;28;20137;-79
2021/12/22 14:47:45;;;;;;;23.77;12.18;;;;;;;;;;5070318;28;20571;-79
2021/12/22 14:50:13;;;;;;;28.75;12.73;;;;;;;;;;5077720;28;20099;-78
2021/12/22 14:52:56;;;;;;;25.13;12.32;;;;;;;;;;5081308;28;20107;-78
2021/12/22 14:55:35;;;;;;;26.35;12.15;;;;;;;;;;5072511;28;20077;-78